createdAt,value
2018-06-30T00:02:11.450Z,6.40
2018-06-30T00:04:45.322Z,7.10
2018-06-30T00:07:13.849Z,6.87
2018-06-30T00:09:42.435Z,6.33
2018-06-30T00:12:10.964Z,6.37
2018-06-30T00:14:39.551Z,7.07
2018-06-30T00:17:08.094Z,6.63
2018-06-30T00:19:36.756Z,6.70
2018-06-30T00:22:05.503Z,7.10
2018-06-30T00:24:34.127Z,6.90
2018-06-30T00:27:08.078Z,7.27
2018-06-30T00:29:36.694Z,7.50
2018-06-30T00:32:05.273Z,6.93
2018-06-30T00:34:33.899Z,6.80
2018-06-30T00:37:02.495Z,7.20
2018-06-30T00:39:31.074Z,6.90
2018-06-30T00:41:59.674Z,7.07
2018-06-30T00:44:28.270Z,6.67
2018-06-30T00:46:56.909Z,7.10
2018-06-30T00:49:25.572Z,7.37
2018-06-30T00:51:54.176Z,6.67
2018-06-30T00:54:22.689Z,6.67
2018-06-30T00:56:51.229Z,6.50
2018-06-30T00:59:19.808Z,6.93
2018-06-30T01:01:48.426Z,7.00
2018-06-30T01:04:17.069Z,7.27
2018-06-30T01:06:45.757Z,7.43
2018-06-30T01:09:14.344Z,7.10
2018-06-30T01:11:43.035Z,7.33
2018-06-30T01:14:11.658Z,7.50
2018-06-30T01:16:40.407Z,7.40
2018-06-30T01:19:09.036Z,7.20
2018-06-30T01:21:37.926Z,7.70
2018-06-30T01:24:06.921Z,7.50
2018-06-30T01:26:35.556Z,7.33
2018-06-30T01:29:04.202Z,7.40
2018-06-30T01:31:32.810Z,7.80
2018-06-30T01:34:01.403Z,8.33
2018-06-30T01:36:30.023Z,7.90
2018-06-30T01:38:58.593Z,7.43
2018-06-30T01:41:27.146Z,6.77
2018-06-30T01:43:55.860Z,7.83
2018-06-30T01:46:24.894Z,7.67
2018-06-30T01:48:53.601Z,7.50
2018-06-30T01:51:22.226Z,6.83
2018-06-30T01:53:50.762Z,7.67
2018-06-30T01:56:19.312Z,8.67
2018-06-30T01:58:47.848Z,8.83
2018-06-30T02:01:16.493Z,8.37
2018-06-30T02:03:45.077Z,9.37
2018-06-30T02:06:13.713Z,8.80
2018-06-30T02:08:42.335Z,8.90
2018-06-30T02:11:10.927Z,8.97
2018-06-30T02:13:39.548Z,8.97
2018-06-30T02:16:08.180Z,8.57
2018-06-30T02:18:36.835Z,8.80
2018-06-30T02:21:05.411Z,9.33
2018-06-30T02:23:34.011Z,8.37
2018-06-30T02:26:02.647Z,8.73
2018-06-30T02:28:31.307Z,7.87
2018-06-30T02:30:59.956Z,8.13
2018-06-30T02:33:28.644Z,8.87
2018-06-30T02:35:57.301Z,8.57
2018-06-30T02:38:25.931Z,8.17
2018-06-30T02:40:54.572Z,7.70
2018-06-30T02:43:23.229Z,7.50
2018-06-30T02:45:51.922Z,7.63
2018-06-30T02:48:20.504Z,7.53
2018-06-30T02:50:49.059Z,7.23
2018-06-30T02:53:17.655Z,7.70
2018-06-30T02:55:46.231Z,7.50
2018-06-30T02:58:14.824Z,7.20
2018-06-30T03:00:43.476Z,7.20
2018-06-30T03:03:12.104Z,7.63
2018-06-30T03:05:40.666Z,8.40
2018-06-30T03:08:09.278Z,7.63
2018-06-30T03:10:37.891Z,7.50
2018-06-30T03:13:06.504Z,6.57
2018-06-30T03:15:35.055Z,6.87
2018-06-30T03:18:03.784Z,6.90
2018-06-30T03:20:32.530Z,6.43
2018-06-30T03:23:01.116Z,6.67
2018-06-30T03:25:29.690Z,7.23
2018-06-30T03:27:58.221Z,7.23
2018-06-30T03:30:26.871Z,6.73
2018-06-30T03:32:55.572Z,7.83
2018-06-30T03:35:24.348Z,7.10
2018-06-30T03:37:52.913Z,7.17
2018-06-30T03:40:21.473Z,7.30
2018-06-30T03:42:50.122Z,7.10
2018-06-30T03:45:18.658Z,7.67
2018-06-30T03:47:47.394Z,7.03
2018-06-30T03:50:16.012Z,8.30
2018-06-30T03:52:44.573Z,7.43
2018-06-30T03:55:13.208Z,8.20
2018-06-30T03:57:41.841Z,7.73
2018-06-30T04:00:10.410Z,7.10
2018-06-30T04:02:38.939Z,7.37
2018-06-30T04:05:07.665Z,8.10
2018-06-30T04:07:36.309Z,7.53
2018-06-30T04:10:05.020Z,8.03
2018-06-30T04:12:33.692Z,8.20
2018-06-30T04:15:02.328Z,7.57
2018-06-30T04:17:33.013Z,7.83
2018-06-30T04:20:01.652Z,7.97
2018-06-30T04:22:30.228Z,7.80
2018-06-30T04:24:59.075Z,7.70
2018-06-30T04:27:27.668Z,8.93
2018-06-30T04:29:56.289Z,8.63
2018-06-30T04:32:24.877Z,8.93
2018-06-30T04:34:53.496Z,9.70
2018-06-30T04:37:22.039Z,8.80
2018-06-30T04:39:50.659Z,8.47
2018-06-30T04:42:19.265Z,8.07
2018-06-30T04:44:47.845Z,8.43
2018-06-30T04:47:16.492Z,8.83
2018-06-30T04:49:45.156Z,8.03
2018-06-30T04:52:13.807Z,8.33
2018-06-30T04:54:42.439Z,8.13
2018-06-30T04:57:10.971Z,8.40
2018-06-30T04:59:39.590Z,9.30
2018-06-30T05:02:08.228Z,8.30
2018-06-30T05:04:36.873Z,8.23
2018-06-30T05:07:05.502Z,8.97
2018-06-30T05:09:34.119Z,8.10
2018-06-30T05:12:02.726Z,8.80
2018-06-30T05:14:31.303Z,9.00
2018-06-30T05:16:59.839Z,9.07
2018-06-30T05:19:28.463Z,9.23
2018-06-30T05:21:57.089Z,9.73
2018-06-30T05:24:25.729Z,8.67
2018-06-30T05:26:54.326Z,8.47
2018-06-30T05:29:22.969Z,8.27
2018-06-30T05:31:51.572Z,8.17
2018-06-30T05:34:20.215Z,8.30
2018-06-30T05:36:48.793Z,7.57
2018-06-30T05:39:17.421Z,7.33
2018-06-30T05:41:45.994Z,7.43
2018-06-30T05:44:14.640Z,7.30
2018-06-30T05:46:43.317Z,7.40
2018-06-30T05:49:11.935Z,7.37
2018-06-30T05:51:40.542Z,6.27
2018-06-30T05:54:09.189Z,6.67
2018-06-30T05:56:37.746Z,7.50
2018-06-30T05:59:06.305Z,7.30
2018-06-30T06:01:34.880Z,6.73
2018-06-30T06:04:03.474Z,7.87
2018-06-30T06:06:32.151Z,6.80
2018-06-30T06:09:00.759Z,7.03
2018-06-30T06:11:29.418Z,6.90
2018-06-30T06:13:57.999Z,6.70
2018-06-30T06:16:26.618Z,6.50
2018-06-30T06:18:55.494Z,6.40
2018-06-30T06:21:24.094Z,6.53
2018-06-30T06:23:52.645Z,6.00
2018-06-30T06:26:21.279Z,5.80
2018-06-30T06:28:49.901Z,5.90
2018-06-30T06:31:18.520Z,6.20
2018-06-30T06:33:47.066Z,5.40
2018-06-30T06:36:15.707Z,5.47
2018-06-30T06:47:29.383Z,5.17
2018-06-30T06:49:58.061Z,5.10
2018-06-30T06:52:26.666Z,4.90
2018-06-30T06:54:55.323Z,4.60
2018-06-30T06:57:24.024Z,5.27
2018-06-30T06:59:52.668Z,4.40
2018-06-30T07:02:21.162Z,4.03
2018-06-30T07:04:49.743Z,3.80
2018-06-30T07:07:18.303Z,3.83
2018-06-30T07:09:46.859Z,3.40
2018-06-30T07:12:15.460Z,3.33
2018-06-30T07:14:44.069Z,3.20
2018-06-30T07:17:12.735Z,3.80
2018-06-30T07:19:41.393Z,3.40
2018-06-30T07:22:10.269Z,3.27
2018-06-30T07:24:38.923Z,3.10
2018-06-30T07:27:07.809Z,2.93
2018-06-30T07:29:36.606Z,3.07
2018-06-30T07:32:05.207Z,2.97
2018-06-30T07:34:33.850Z,2.83
2018-06-30T07:37:02.473Z,3.17
2018-06-30T07:39:31.337Z,3.50
2018-06-30T07:42:00.162Z,3.00
2018-06-30T07:44:29.049Z,3.40
2018-06-30T07:52:47.966Z,2.93
2018-06-30T07:55:16.622Z,3.00
2018-06-30T07:57:45.163Z,2.90
2018-06-30T08:00:13.773Z,2.80
2018-06-30T08:02:42.327Z,2.80
2018-06-30T08:05:10.871Z,2.77
2018-06-30T08:07:39.463Z,2.80
2018-06-30T08:10:08.020Z,2.80
2018-06-30T08:12:36.569Z,2.60
2018-06-30T08:15:05.555Z,2.80
2018-06-30T08:17:34.058Z,2.80
2018-06-30T08:20:02.693Z,2.90
2018-06-30T08:22:31.231Z,2.90
2018-06-30T08:24:59.798Z,3.10
2018-06-30T08:27:28.721Z,2.90
2018-06-30T08:29:57.409Z,2.73
2018-06-30T08:32:26.266Z,2.70
2018-06-30T08:34:54.915Z,2.80
2018-06-30T08:37:23.632Z,3.03
2018-06-30T08:39:52.553Z,2.57
2018-06-30T08:42:21.173Z,3.40
2018-06-30T08:44:50.571Z,2.70
2018-06-30T08:47:19.425Z,2.90
2018-06-30T08:49:48.620Z,2.40
2018-06-30T08:52:17.326Z,2.50
2018-06-30T08:54:46.150Z,2.63
2018-06-30T08:57:14.849Z,2.83
2018-06-30T08:59:43.449Z,2.40
2018-06-30T09:02:14.374Z,2.67
2018-06-30T09:04:43.424Z,2.73
2018-06-30T09:07:11.944Z,3.37
2018-06-30T09:09:40.505Z,2.63
2018-06-30T09:12:09.143Z,2.67
2018-06-30T09:14:37.674Z,2.50
2018-06-30T09:17:06.245Z,3.00
2018-06-30T09:19:34.820Z,2.90
2018-06-30T09:22:03.491Z,2.80
2018-06-30T09:24:32.166Z,2.47
2018-06-30T09:27:00.728Z,2.30
2018-06-30T09:29:29.301Z,2.43
2018-06-30T09:31:57.842Z,2.50
2018-06-30T09:34:26.414Z,2.40
2018-06-30T09:36:54.963Z,2.70
2018-06-30T09:39:23.465Z,2.30
2018-06-30T09:41:52.055Z,2.83
2018-06-30T09:44:20.629Z,3.00
2018-06-30T09:46:49.099Z,2.90
2018-06-30T09:49:17.667Z,3.03
2018-06-30T09:51:46.176Z,2.33
2018-06-30T09:54:14.687Z,2.67
2018-06-30T09:56:43.265Z,2.60
2018-06-30T09:59:11.737Z,2.90
2018-06-30T10:01:40.277Z,2.60
2018-06-30T10:04:08.859Z,2.70
2018-06-30T10:06:37.448Z,2.40
2018-06-30T10:09:08.612Z,2.47
2018-06-30T10:11:37.291Z,2.60
2018-06-30T10:14:05.948Z,2.50
2018-06-30T10:16:34.480Z,2.30
2018-06-30T10:19:03.242Z,2.30
2018-06-30T10:21:31.806Z,2.37
2018-06-30T10:24:00.300Z,2.30
2018-06-30T10:26:28.887Z,2.23
2018-06-30T10:28:57.461Z,2.33
2018-06-30T10:31:26.350Z,2.40
2018-06-30T10:33:54.933Z,2.47
2018-06-30T10:36:23.759Z,2.37
2018-06-30T10:38:52.553Z,2.40
2018-06-30T10:41:21.132Z,2.40
2018-06-30T10:43:49.626Z,2.33
2018-06-30T10:46:18.265Z,2.70
2018-06-30T10:48:46.829Z,2.20
2018-06-30T10:51:17.029Z,2.40
2018-06-30T10:53:45.559Z,2.20
2018-06-30T10:56:14.151Z,2.20
2018-06-30T10:58:42.679Z,2.10
2018-06-30T11:01:11.205Z,2.23
2018-06-30T11:03:39.724Z,2.20
2018-06-30T11:06:08.305Z,2.40
2018-06-30T11:08:36.758Z,2.70
2018-06-30T11:11:05.418Z,2.40
2018-06-30T11:13:33.996Z,2.40
2018-06-30T11:16:02.539Z,2.40
2018-06-30T11:18:31.177Z,2.40
2018-06-30T11:20:59.681Z,2.53
2018-06-30T11:23:28.209Z,2.30
2018-06-30T11:25:56.765Z,2.27
2018-06-30T11:28:25.385Z,2.33
2018-06-30T11:30:53.882Z,2.47
2018-06-30T11:33:22.377Z,2.30
2018-06-30T11:35:50.875Z,2.87
2018-06-30T11:38:19.466Z,2.10
2018-06-30T11:40:48.055Z,3.73
2018-06-30T11:43:16.453Z,2.60
2018-06-30T11:45:44.955Z,2.60
2018-06-30T11:48:13.498Z,2.43
2018-06-30T11:50:42.031Z,2.30
2018-06-30T11:53:10.591Z,2.53
2018-06-30T11:55:39.143Z,2.57
2018-06-30T11:58:07.703Z,2.60
2018-06-30T12:00:36.205Z,2.13
2018-06-30T12:03:04.937Z,2.47
2018-06-30T12:05:33.425Z,2.57
2018-06-30T12:08:01.905Z,2.20
2018-06-30T12:10:30.389Z,2.30
2018-06-30T12:12:58.973Z,2.60
2018-06-30T12:15:27.531Z,2.23
2018-06-30T12:17:56.110Z,2.27
2018-06-30T12:20:24.637Z,2.00
2018-06-30T12:22:53.226Z,2.30
2018-06-30T12:25:21.723Z,2.20
2018-06-30T12:27:50.255Z,2.20
2018-06-30T12:30:18.828Z,2.60
2018-06-30T12:32:47.319Z,2.20
2018-06-30T12:35:15.895Z,2.20
2018-06-30T12:37:44.490Z,2.37
2018-06-30T12:40:13.318Z,2.10
2018-06-30T12:42:41.883Z,2.40
2018-06-30T12:45:10.401Z,2.23
2018-06-30T12:47:39.049Z,2.07
2018-06-30T12:50:07.658Z,2.20
2018-06-30T12:52:36.939Z,2.10
2018-06-30T12:55:06.135Z,2.13
2018-06-30T12:57:35.575Z,2.20
2018-06-30T13:00:04.324Z,2.10
2018-06-30T13:02:32.941Z,1.97
2018-06-30T13:05:01.643Z,2.00
2018-06-30T13:07:30.245Z,2.00
2018-06-30T13:09:58.745Z,2.10
2018-06-30T13:12:27.696Z,2.00
2018-06-30T13:14:56.267Z,2.17
2018-06-30T13:17:31.016Z,2.20
2018-06-30T13:20:00.034Z,1.90
2018-06-30T13:22:28.544Z,2.00
2018-06-30T13:24:57.637Z,1.90
2018-06-30T13:27:26.362Z,2.30
2018-06-30T13:29:55.728Z,3.23
2018-06-30T13:32:24.545Z,2.03
2018-06-30T13:34:53.403Z,2.10
2018-06-30T13:37:21.958Z,2.00
2018-06-30T13:39:50.543Z,1.90
2018-06-30T13:42:19.109Z,2.10
2018-06-30T13:44:47.707Z,2.07
2018-06-30T13:47:16.347Z,2.17
2018-06-30T13:49:44.861Z,2.30
2018-06-30T13:52:13.615Z,2.40
2018-06-30T13:54:42.291Z,2.40
2018-06-30T13:57:10.829Z,2.27
2018-06-30T13:59:39.434Z,2.20
2018-06-30T14:02:08.134Z,2.27
2018-06-30T14:04:36.663Z,2.23
2018-06-30T14:07:05.254Z,2.40
2018-06-30T14:09:33.895Z,2.40
2018-06-30T14:12:02.582Z,2.20
2018-06-30T14:14:31.125Z,2.07
2018-06-30T14:16:59.705Z,2.27
2018-06-30T14:19:28.266Z,2.40
2018-06-30T14:21:56.842Z,2.10
2018-06-30T14:24:31.184Z,2.00
2018-06-30T14:26:59.950Z,1.90
2018-06-30T14:29:28.497Z,2.37
2018-06-30T14:31:57.066Z,2.03
2018-06-30T14:34:25.719Z,2.33
2018-06-30T14:36:54.305Z,2.00
2018-06-30T14:39:22.873Z,2.00
2018-06-30T14:41:51.484Z,2.20
2018-06-30T14:44:27.243Z,1.90
2018-06-30T14:46:55.960Z,2.20
2018-06-30T14:49:24.469Z,2.30
2018-06-30T14:51:53.173Z,2.47
2018-06-30T14:54:21.715Z,1.80
2018-06-30T14:56:50.253Z,2.10
2018-06-30T14:59:19.407Z,2.33
2018-06-30T15:01:48.610Z,2.33
2018-06-30T15:04:17.188Z,1.90
2018-06-30T15:06:45.739Z,2.00
2018-06-30T15:09:15.241Z,2.20
2018-06-30T15:11:44.709Z,2.63
2018-06-30T15:14:14.105Z,2.10
2018-06-30T15:16:42.714Z,2.20
2018-06-30T15:19:11.447Z,2.10
2018-06-30T15:21:39.965Z,2.30
2018-06-30T15:24:09.255Z,2.13
2018-06-30T15:26:37.789Z,2.00
2018-06-30T15:29:06.291Z,2.20
2018-06-30T15:31:34.995Z,2.37
2018-06-30T15:34:03.641Z,2.33
2018-06-30T15:36:32.150Z,2.47
2018-06-30T15:39:00.836Z,2.30
2018-06-30T15:41:29.418Z,2.40
2018-06-30T15:43:58.075Z,2.40
2018-06-30T15:46:26.688Z,2.13
2018-06-30T15:48:55.287Z,2.40
2018-06-30T15:51:23.934Z,2.43
2018-06-30T15:53:52.565Z,2.47
2018-06-30T15:56:21.142Z,2.50
2018-06-30T15:58:49.683Z,2.43
2018-06-30T16:01:18.211Z,2.70
2018-06-30T16:03:46.773Z,2.70
2018-06-30T16:06:15.325Z,2.60
2018-06-30T16:08:43.903Z,2.50
2018-06-30T16:11:12.414Z,2.47
2018-06-30T16:13:41.995Z,2.53
2018-06-30T16:16:10.707Z,2.97
2018-06-30T16:18:39.372Z,2.93
2018-06-30T16:21:08.029Z,2.77
2018-06-30T16:23:36.627Z,3.20
2018-06-30T16:26:05.377Z,2.57
2018-06-30T16:28:33.988Z,2.63
2018-06-30T16:31:02.907Z,2.83
2018-06-30T16:33:31.552Z,2.70
2018-06-30T16:36:00.015Z,2.77
2018-06-30T16:38:28.471Z,2.77
2018-06-30T16:40:56.895Z,2.83
2018-06-30T16:43:25.375Z,3.00
2018-06-30T16:45:53.999Z,3.03
2018-06-30T16:48:22.568Z,2.87
2018-06-30T16:50:51.142Z,2.83
2018-06-30T16:53:19.881Z,2.70
2018-06-30T16:55:48.557Z,2.80
2018-06-30T16:58:17.215Z,2.80
2018-06-30T17:00:45.773Z,2.70
2018-06-30T17:03:14.379Z,3.13
2018-06-30T17:05:42.953Z,2.80
2018-06-30T17:08:11.531Z,2.97
2018-06-30T17:10:40.082Z,2.70
2018-06-30T17:13:08.675Z,2.70
2018-06-30T17:15:37.311Z,2.90
2018-06-30T17:18:05.883Z,2.73
2018-06-30T17:20:34.491Z,2.40
2018-06-30T17:23:03.021Z,3.00
2018-06-30T17:25:31.656Z,2.80
2018-06-30T17:28:00.300Z,3.50
2018-06-30T17:30:28.929Z,3.13
2018-06-30T17:32:57.481Z,2.90
2018-06-30T17:35:26.022Z,3.30
2018-06-30T17:43:43.118Z,2.73
2018-06-30T17:46:11.670Z,2.60
2018-06-30T17:48:40.280Z,2.90
2018-06-30T17:51:08.958Z,2.80
2018-06-30T17:53:37.509Z,2.63
2018-06-30T17:56:06.162Z,2.93
2018-06-30T17:58:34.711Z,3.00
2018-06-30T18:01:03.384Z,2.80
2018-06-30T18:03:31.987Z,3.27
2018-06-30T18:06:00.545Z,3.30
2018-06-30T18:08:29.149Z,2.53
2018-06-30T18:10:57.691Z,2.50
2018-06-30T18:13:26.263Z,2.73
2018-06-30T18:15:54.860Z,3.00
2018-06-30T18:18:23.404Z,3.20
2018-06-30T18:20:52.029Z,2.93
2018-06-30T18:23:20.595Z,3.10
2018-06-30T18:25:50.449Z,2.80
2018-06-30T18:28:19.378Z,3.13
2018-06-30T18:30:47.921Z,2.43
2018-06-30T18:33:16.535Z,2.50
2018-06-30T18:35:45.094Z,2.87
2018-06-30T18:38:19.549Z,3.10
2018-06-30T18:40:48.066Z,2.63
2018-06-30T18:43:16.659Z,2.93
2018-06-30T18:45:45.329Z,3.40
2018-06-30T18:48:13.988Z,2.70
2018-06-30T18:50:42.555Z,2.90
2018-06-30T18:53:11.289Z,2.97
2018-06-30T18:58:44.658Z,3.83
2018-06-30T19:01:45.861Z,2.70
2018-06-30T19:04:15.979Z,2.73
2018-06-30T19:06:45.434Z,2.40
2018-06-30T19:09:14.929Z,2.27
2018-06-30T19:11:44.627Z,2.30
2018-06-30T19:14:14.310Z,2.47
2018-06-30T19:16:43.934Z,2.23
2018-06-30T19:19:12.567Z,2.10
2018-06-30T19:21:41.166Z,3.10
2018-06-30T19:24:09.867Z,2.40
2018-06-30T19:26:38.546Z,2.73
2018-06-30T19:29:07.151Z,2.17
2018-06-30T19:31:35.946Z,1.90
2018-06-30T19:34:04.519Z,2.33
2018-06-30T19:36:33.178Z,1.90
2018-06-30T19:39:01.664Z,1.90
2018-06-30T19:41:30.273Z,1.93
2018-06-30T19:43:58.909Z,2.00
2018-06-30T19:46:27.565Z,1.80
2018-06-30T19:48:56.136Z,1.73
2018-06-30T19:51:24.733Z,1.80
2018-06-30T19:53:53.311Z,1.80
2018-06-30T19:56:21.869Z,1.97
2018-06-30T19:58:50.425Z,2.17
2018-06-30T20:01:19.119Z,1.60
2018-06-30T20:03:47.681Z,1.90
2018-06-30T20:06:16.905Z,1.50
2018-06-30T20:08:45.655Z,1.83
2018-06-30T20:11:14.406Z,1.73
2018-06-30T20:13:43.010Z,1.60
2018-06-30T20:16:11.702Z,1.90
2018-06-30T20:18:40.502Z,1.80
2018-06-30T20:21:09.127Z,1.50
2018-06-30T20:23:37.757Z,1.80
2018-06-30T20:26:06.496Z,1.70
2018-06-30T20:28:35.452Z,1.90
2018-06-30T20:31:04.039Z,2.10
2018-06-30T20:33:32.675Z,1.37
2018-06-30T20:36:01.273Z,1.27
2018-06-30T20:38:29.889Z,1.30
2018-06-30T20:40:58.454Z,1.60
2018-06-30T20:43:27.116Z,1.47
2018-06-30T20:45:55.687Z,1.70
2018-06-30T20:48:24.229Z,1.77
2018-06-30T20:50:52.780Z,1.57
2018-06-30T20:53:21.366Z,1.37
2018-06-30T20:55:49.918Z,1.43
2018-06-30T20:58:18.554Z,1.30
2018-06-30T21:00:47.041Z,1.40
2018-06-30T21:03:15.664Z,1.30
2018-06-30T21:05:44.350Z,1.50
2018-06-30T21:08:13.004Z,1.27
2018-06-30T21:10:41.500Z,1.37
2018-06-30T21:13:10.061Z,1.30
2018-06-30T21:15:38.573Z,1.10
2018-06-30T21:18:07.203Z,1.20
2018-06-30T21:20:35.830Z,1.20
2018-06-30T21:23:04.447Z,1.30
2018-06-30T21:25:33.154Z,1.30
2018-06-30T21:28:01.815Z,1.10
2018-06-30T21:30:30.488Z,1.13
2018-06-30T21:32:59.145Z,1.27
2018-06-30T21:35:28.041Z,1.00
2018-06-30T21:37:56.668Z,0.90
2018-06-30T21:40:25.308Z,1.67
2018-06-30T21:45:57.467Z,1.10
2018-06-30T21:48:26.654Z,2.00
2018-06-30T21:50:55.273Z,0.97
2018-06-30T21:53:25.143Z,0.80
2018-06-30T21:55:53.997Z,0.83
2018-06-30T21:58:22.607Z,0.80
2018-06-30T22:00:56.699Z,1.00
2018-06-30T22:03:26.497Z,0.60
2018-06-30T22:05:56.546Z,1.10
2018-06-30T22:08:25.177Z,1.60
2018-06-30T22:10:54.077Z,1.83
2018-06-30T22:13:22.676Z,1.57
2018-06-30T22:15:51.456Z,1.17
2018-06-30T22:18:20.121Z,1.20
2018-06-30T22:20:48.731Z,1.60
2018-06-30T22:23:17.321Z,1.00
2018-06-30T22:25:45.945Z,1.13
2018-06-30T22:28:14.562Z,1.30
2018-06-30T22:30:43.245Z,1.20
2018-06-30T22:33:11.912Z,1.20
2018-06-30T22:35:40.521Z,1.10
2018-06-30T22:38:09.105Z,0.93
2018-06-30T22:40:37.611Z,0.80
2018-06-30T22:43:06.187Z,0.87
2018-06-30T22:45:34.897Z,0.90
2018-06-30T22:48:03.551Z,1.20
2018-06-30T22:50:32.172Z,0.83
2018-06-30T22:53:00.803Z,0.70
2018-06-30T22:55:29.517Z,0.77
2018-06-30T22:57:58.149Z,0.80
2018-06-30T23:00:26.720Z,0.77
2018-06-30T23:02:55.375Z,0.60
2018-06-30T23:05:24.075Z,0.83
2018-06-30T23:07:52.619Z,0.83
2018-06-30T23:10:21.332Z,0.80
2018-06-30T23:12:51.318Z,0.70
2018-06-30T23:15:19.980Z,0.73
2018-06-30T23:17:48.567Z,0.70
2018-06-30T23:20:17.171Z,0.60
2018-06-30T23:22:58.770Z,0.60
2018-06-30T23:25:28.749Z,0.80
2018-06-30T23:27:57.708Z,0.70
2018-06-30T23:30:26.663Z,0.60
2018-06-30T23:32:55.240Z,0.67
2018-06-30T23:35:24.918Z,0.60
2018-06-30T23:37:54.207Z,0.70
2018-06-30T23:40:22.776Z,0.77
2018-06-30T23:42:51.494Z,0.60
2018-06-30T23:45:20.480Z,0.60
2018-06-30T23:47:49.734Z,0.70
2018-06-30T23:50:18.358Z,0.70
2018-06-30T23:52:46.901Z,0.70
2018-06-30T23:55:16.562Z,0.70
2018-06-30T23:57:45.335Z,0.60
